Terminal Aerodrome Forecast
Issued by NWS

Home | Current Version | Previous Version | Graphics & Text | Print | Product List | Glossary On
Versions: 1 2 3 4 5 6 7 8 9 10 11 12 13 14 15 16 17
248
FTUS43 KABR 221120
TAFMBG
TAF
KMBG 221120Z 2212/2312 14016G22KT P6SM BKN035 OVC070
     FM221400 16021G29KT P6SM OVC025
     FM221500 16023G32KT P6SM OVC035
     FM222300 15018G25KT P6SM SCT150
     FM230200 13012KT P6SM SCT200=

USA.gov is the U.S. government's official web portal to all federal, state and local government web resources and services.